createdAt,value
2019-03-06T00:01:53.074Z,91.50
2019-03-06T00:04:23.162Z,91.80
2019-03-06T00:06:53.213Z,92.00
2019-03-06T00:09:26.445Z,92.30
2019-03-06T00:11:56.740Z,92.30
2019-03-06T00:14:26.868Z,92.00
2019-03-06T00:16:57.285Z,92.30
2019-03-06T00:19:27.408Z,92.60
2019-03-06T00:21:57.589Z,92.50
2019-03-06T00:24:27.691Z,92.20
2019-03-06T00:26:57.831Z,92.40
2019-03-06T00:29:27.969Z,92.70
2019-03-06T00:31:57.993Z,92.90
2019-03-06T00:34:28.150Z,93.10
2019-03-06T00:36:59.807Z,93.20
2019-03-06T00:39:32.933Z,93.20
2019-03-06T00:42:02.983Z,93.40
2019-03-06T00:44:33.062Z,93.60
2019-03-06T00:47:03.126Z,93.30
2019-03-06T00:49:33.337Z,93.30
2019-03-06T00:52:03.380Z,93.60
2019-03-06T00:54:33.394Z,94.00
2019-03-06T00:57:03.284Z,94.60
2019-03-06T00:59:33.329Z,95.00
2019-03-06T01:02:03.703Z,94.80
2019-03-06T01:04:33.774Z,93.60
2019-03-06T01:07:03.771Z,93.70
2019-03-06T01:09:33.761Z,93.60
2019-03-06T01:12:03.920Z,93.90
2019-03-06T01:14:34.048Z,94.20
2019-03-06T01:17:04.058Z,94.80
2019-03-06T01:19:34.061Z,95.00
2019-03-06T01:22:03.951Z,94.60
2019-03-06T01:24:33.885Z,95.10
2019-03-06T01:27:04.040Z,95.70
2019-03-06T01:29:34.088Z,95.80
2019-03-06T01:32:04.093Z,95.90
2019-03-06T01:34:38.306Z,96.20
2019-03-06T01:37:09.977Z,95.60
2019-03-06T01:39:57.851Z,95.30
2019-03-06T01:42:29.497Z,95.30
2019-03-06T01:44:59.557Z,95.30
2019-03-06T01:47:29.544Z,94.50
2019-03-06T01:50:00.868Z,94.90
2019-03-06T01:52:30.980Z,95.00
2019-03-06T01:55:01.504Z,95.00
2019-03-06T01:57:31.479Z,95.30
2019-03-06T02:00:01.566Z,94.60
2019-03-06T02:02:33.009Z,94.70
2019-03-06T02:05:05.771Z,95.60
2019-03-06T02:07:35.775Z,95.50
2019-03-06T02:10:08.688Z,95.50
2019-03-06T02:12:39.146Z,95.70
2019-03-06T02:15:17.675Z,95.60
2019-03-06T02:17:47.889Z,95.60
2019-03-06T02:20:18.344Z,95.70
2019-03-06T02:22:48.439Z,95.40
2019-03-06T02:25:18.432Z,95.40
2019-03-06T02:27:48.433Z,95.70
2019-03-06T02:30:23.941Z,95.60
2019-03-06T02:32:54.015Z,95.90
2019-03-06T02:35:24.040Z,95.60
2019-03-06T02:37:54.397Z,95.80
2019-03-06T02:40:24.319Z,96.30
2019-03-06T02:42:54.354Z,96.20
2019-03-06T02:45:24.458Z,96.10
2019-03-06T02:47:54.518Z,95.90
2019-03-06T02:50:24.733Z,95.30
2019-03-06T02:52:54.773Z,95.40
2019-03-06T02:55:24.748Z,95.40
2019-03-06T02:58:08.513Z,95.90
2019-03-06T03:00:40.205Z,95.70
2019-03-06T03:03:17.665Z,95.70
2019-03-06T03:05:49.206Z,95.80
2019-03-06T03:08:19.271Z,96.00
2019-03-06T03:10:49.574Z,96.20
2019-03-06T03:13:19.561Z,96.50
2019-03-06T03:15:49.585Z,96.20
2019-03-06T03:18:20.759Z,95.70
2019-03-06T03:20:50.834Z,95.80
2019-03-06T03:23:20.813Z,95.80
2019-03-06T03:25:50.789Z,95.70
2019-03-06T03:28:24.134Z,95.90
2019-03-06T03:30:54.231Z,96.30
2019-03-06T03:33:25.179Z,96.40
2019-03-06T03:35:55.343Z,96.50
2019-03-06T03:38:25.415Z,95.40
2019-03-06T03:40:55.480Z,95.30
2019-03-06T03:43:25.405Z,95.60
2019-03-06T03:45:55.782Z,95.80
2019-03-06T03:48:27.406Z,96.10
2019-03-06T03:50:57.535Z,96.30
2019-03-06T03:53:27.609Z,96.30
2019-03-06T03:55:57.745Z,96.70
2019-03-06T03:58:27.884Z,96.90
2019-03-06T04:00:57.861Z,96.30
2019-03-06T04:03:27.905Z,96.60
2019-03-06T04:05:57.965Z,96.70
2019-03-06T04:08:28.042Z,97.10
2019-03-06T04:10:58.148Z,97.60
2019-03-06T04:13:28.324Z,97.10
2019-03-06T04:15:58.314Z,97.10
2019-03-06T04:18:28.395Z,97.70
2019-03-06T04:20:58.510Z,97.50
2019-03-06T04:23:28.591Z,97.30
2019-03-06T04:25:58.499Z,97.20
2019-03-06T04:28:28.523Z,98.20
2019-03-06T04:30:58.504Z,98.20
2019-03-06T04:33:29.518Z,98.10
2019-03-06T04:36:00.819Z,98.60
2019-03-06T04:38:30.841Z,99.50
2019-03-06T04:41:00.816Z,99.90
2019-03-06T04:43:31.916Z,99.90
2019-03-06T04:46:02.007Z,99.90
2019-03-06T04:48:32.124Z,99.90
2019-03-06T04:51:02.234Z,99.90
2019-03-06T04:53:32.303Z,99.90
2019-03-06T04:56:03.579Z,99.90
2019-03-06T04:58:33.499Z,99.90
2019-03-06T05:01:03.592Z,99.90
2019-03-06T05:03:33.612Z,99.90
2019-03-06T05:06:03.760Z,99.90
2019-03-06T05:08:33.867Z,99.90
2019-03-06T05:11:03.973Z,99.90
2019-03-06T05:13:33.956Z,99.90
2019-03-06T05:16:04.109Z,99.90
2019-03-06T05:18:35.685Z,99.90
2019-03-06T05:21:05.747Z,99.90
2019-03-06T05:23:35.697Z,99.90
2019-03-06T05:26:06.707Z,99.90
2019-03-06T05:28:36.805Z,99.90
2019-03-06T05:31:07.777Z,99.90
2019-03-06T05:33:37.897Z,99.90
2019-03-06T05:36:30.706Z,99.90
2019-03-06T05:39:11.093Z,99.90
2019-03-06T05:41:41.158Z,99.90
2019-03-06T05:44:11.363Z,99.90
2019-03-06T05:46:41.436Z,99.90
2019-03-06T05:49:11.891Z,99.90
2019-03-06T05:51:41.895Z,99.90
2019-03-06T05:54:14.448Z,99.90
2019-03-06T05:56:44.479Z,99.90
2019-03-06T05:59:14.440Z,99.90
2019-03-06T06:01:44.615Z,99.90
2019-03-06T06:04:14.595Z,99.90
2019-03-06T06:06:44.664Z,99.90
2019-03-06T06:09:14.771Z,99.90
2019-03-06T06:11:45.081Z,99.90
2019-03-06T06:14:15.214Z,99.90
2019-03-06T06:16:45.222Z,99.90
2019-03-06T06:19:15.389Z,99.90
2019-03-06T06:21:49.890Z,99.90
2019-03-06T06:24:20.032Z,99.90
2019-03-06T06:26:50.199Z,99.90
2019-03-06T06:29:20.360Z,99.90
2019-03-06T06:31:50.530Z,99.90
2019-03-06T06:34:20.823Z,99.90
2019-03-06T06:36:50.822Z,99.90
2019-03-06T06:39:22.062Z,99.90
2019-03-06T06:41:52.168Z,99.90
2019-03-06T06:44:22.313Z,99.90
2019-03-06T06:46:52.488Z,99.90
2019-03-06T06:49:22.493Z,99.90
2019-03-06T06:52:04.597Z,99.90
2019-03-06T06:54:50.445Z,99.90
2019-03-06T06:57:41.676Z,99.70
2019-03-06T07:00:42.528Z,99.50
2019-03-06T07:03:42.902Z,99.50
2019-03-06T07:06:14.642Z,99.30
2019-03-06T07:09:02.421Z,99.20
2019-03-06T07:11:41.744Z,99.10
2019-03-06T07:14:22.297Z,99.10
2019-03-06T07:17:11.854Z,98.80
2019-03-06T07:19:43.519Z,98.10
2019-03-06T07:22:15.152Z,96.90
2019-03-06T07:25:01.819Z,96.90
2019-03-06T07:27:33.435Z,97.00
2019-03-06T07:30:21.925Z,97.30
2019-03-06T07:33:05.367Z,97.40
2019-03-06T07:35:56.874Z,96.90
2019-03-06T07:38:27.246Z,96.60
2019-03-06T07:41:14.889Z,96.50
2019-03-06T07:43:53.155Z,96.60
2019-03-06T07:46:40.583Z,97.10
2019-03-06T07:49:11.990Z,96.80
2019-03-06T07:51:49.714Z,96.50
2019-03-06T07:54:21.267Z,96.30
2019-03-06T07:57:04.816Z,95.00
2019-03-06T07:59:34.834Z,95.30
2019-03-06T08:02:23.243Z,94.30
2019-03-06T08:04:56.428Z,93.70
2019-03-06T08:07:26.406Z,94.30
2019-03-06T08:09:56.340Z,94.20
2019-03-06T08:12:32.991Z,95.30
2019-03-06T08:15:22.559Z,95.30
2019-03-06T08:17:54.175Z,95.00
2019-03-06T08:20:31.492Z,94.90
2019-03-06T08:23:17.515Z,94.30
2019-03-06T08:25:49.895Z,93.90
2019-03-06T08:28:19.795Z,93.80
2019-03-06T08:31:06.333Z,93.40
2019-03-06T08:33:36.224Z,92.00
2019-03-06T08:36:06.215Z,91.90
2019-03-06T08:38:36.055Z,92.00
2019-03-06T08:41:06.136Z,91.80
2019-03-06T08:43:37.287Z,90.30
2019-03-06T08:46:11.640Z,88.10
2019-03-06T08:48:43.263Z,86.40
2019-03-06T08:51:18.806Z,89.20
2019-03-06T08:54:06.819Z,89.80
2019-03-06T08:56:40.177Z,91.10
2019-03-06T08:59:20.357Z,91.30
2019-03-06T09:02:15.516Z,88.80
2019-03-06T09:04:55.141Z,90.10
2019-03-06T09:07:32.696Z,89.70
2019-03-06T09:10:09.433Z,90.90
2019-03-06T09:12:50.061Z,92.00
2019-03-06T09:15:31.762Z,91.20
2019-03-06T09:18:17.637Z,91.30
2019-03-06T09:20:52.014Z,91.50
2019-03-06T09:23:35.650Z,90.70
2019-03-06T09:26:23.686Z,90.40
2019-03-06T09:29:01.102Z,89.70
2019-03-06T09:31:40.537Z,90.60
2019-03-06T09:34:12.178Z,89.90
2019-03-06T09:36:46.439Z,88.40
2019-03-06T09:39:34.881Z,89.20
2019-03-06T09:42:15.525Z,88.70
2019-03-06T09:44:49.870Z,86.50
2019-03-06T09:47:30.251Z,86.50
2019-03-06T09:50:02.127Z,86.50
2019-03-06T09:52:40.293Z,86.80
2019-03-06T09:55:18.032Z,86.20
2019-03-06T09:57:52.619Z,84.40
2019-03-06T10:00:30.236Z,83.70
2019-03-06T10:03:19.651Z,81.90
2019-03-06T10:05:54.037Z,83.70
2019-03-06T10:08:25.658Z,82.50
2019-03-06T10:10:57.966Z,82.00
2019-03-06T10:13:32.577Z,82.70
2019-03-06T10:16:08.251Z,81.90
2019-03-06T10:18:42.669Z,81.50
2019-03-06T10:21:12.671Z,81.10
2019-03-06T10:23:42.654Z,81.50
2019-03-06T10:26:12.578Z,80.70
2019-03-06T10:28:42.635Z,78.50
2019-03-06T10:31:12.901Z,78.00
2019-03-06T10:33:42.952Z,78.70
2019-03-06T10:36:13.409Z,79.40
2019-03-06T10:38:43.376Z,77.30
2019-03-06T10:41:13.774Z,74.50
2019-03-06T10:43:49.053Z,75.40
2019-03-06T10:46:15.508Z,77.50
2019-03-06T10:48:45.519Z,77.30
2019-03-06T10:51:16.361Z,76.40
2019-03-06T10:53:54.727Z,76.00
2019-03-06T10:56:32.217Z,75.10
2019-03-06T10:59:02.743Z,74.70
2019-03-06T11:01:36.304Z,74.00
2019-03-06T11:04:23.943Z,72.90
2019-03-06T11:06:56.934Z,73.90
2019-03-06T11:09:31.427Z,71.80
2019-03-06T11:12:09.307Z,70.60
2019-03-06T11:14:44.624Z,70.10
2019-03-06T11:17:20.230Z,69.90
2019-03-06T11:19:56.639Z,68.40
2019-03-06T11:22:36.557Z,70.50
2019-03-06T11:25:16.083Z,69.90
2019-03-06T11:27:46.423Z,69.50
2019-03-06T11:30:19.742Z,69.80
2019-03-06T11:32:54.372Z,66.70
2019-03-06T11:35:22.939Z,68.30
2019-03-06T11:37:54.644Z,65.90
2019-03-06T11:40:24.969Z,64.60
2019-03-06T11:42:55.796Z,64.80
2019-03-06T11:45:26.747Z,65.50
2019-03-06T11:47:59.948Z,64.70
2019-03-06T11:50:30.891Z,63.80
2019-03-06T11:53:05.690Z,63.20
2019-03-06T11:55:45.486Z,60.20
2019-03-06T11:58:23.091Z,60.20
2019-03-06T12:00:55.653Z,63.00
2019-03-06T12:03:26.305Z,63.00
2019-03-06T12:05:56.727Z,61.00
2019-03-06T12:08:27.252Z,59.50
2019-03-06T12:11:02.473Z,57.90
2019-03-06T12:13:34.766Z,55.60
2019-03-06T12:16:12.737Z,55.60
2019-03-06T12:18:48.140Z,55.50
2019-03-06T12:21:18.047Z,56.50
2019-03-06T12:23:49.210Z,56.40
2019-03-06T12:26:19.415Z,54.70
2019-03-06T12:28:49.577Z,53.30
2019-03-06T12:31:19.473Z,53.60
2019-03-06T12:33:49.547Z,54.70
2019-03-06T12:36:19.541Z,53.20
2019-03-06T12:38:49.491Z,55.30
2019-03-06T12:41:19.577Z,53.70
2019-03-06T12:43:49.638Z,51.70
2019-03-06T12:46:23.826Z,51.70
2019-03-06T12:48:55.953Z,52.60
2019-03-06T12:51:26.010Z,51.60
2019-03-06T12:53:56.000Z,52.20
2019-03-06T12:56:25.917Z,52.50
2019-03-06T12:58:55.874Z,53.10
2019-03-06T13:01:26.905Z,52.90
2019-03-06T13:03:56.962Z,50.40
2019-03-06T13:06:27.067Z,49.70
2019-03-06T13:08:57.048Z,49.20
2019-03-06T13:11:27.036Z,49.60
2019-03-06T13:13:56.973Z,50.80
2019-03-06T13:16:26.866Z,52.60
2019-03-06T13:18:56.966Z,50.90
2019-03-06T13:21:26.936Z,50.80
2019-03-06T13:23:59.143Z,50.80
2019-03-06T13:26:30.327Z,49.40
2019-03-06T13:29:00.424Z,48.80
2019-03-06T13:31:30.474Z,51.30
2019-03-06T13:34:14.342Z,51.70
2019-03-06T13:36:44.399Z,51.30
2019-03-06T13:39:14.404Z,49.50
2019-03-06T13:41:44.551Z,49.00
2019-03-06T13:44:14.738Z,49.70
2019-03-06T13:46:45.859Z,49.80
2019-03-06T13:49:15.908Z,49.90
2019-03-06T13:51:45.908Z,49.30
2019-03-06T13:54:15.882Z,48.70
2019-03-06T13:56:46.892Z,49.20
2019-03-06T13:59:17.052Z,47.40
2019-03-06T14:01:47.138Z,49.50
2019-03-06T14:04:17.182Z,50.00
2019-03-06T14:06:47.095Z,49.40
2019-03-06T14:09:17.301Z,47.40
2019-03-06T14:11:47.571Z,47.10
2019-03-06T14:14:17.691Z,47.50
2019-03-06T14:16:48.762Z,47.40
2019-03-06T14:19:18.752Z,47.50
2019-03-06T14:21:48.730Z,47.30
2019-03-06T14:24:18.960Z,47.80
2019-03-06T14:26:56.350Z,48.40
2019-03-06T14:29:26.447Z,49.00
2019-03-06T14:31:58.024Z,48.60
2019-03-06T14:34:28.072Z,48.50
2019-03-06T14:36:58.520Z,48.40
2019-03-06T14:39:30.149Z,47.20
2019-03-06T14:42:00.407Z,48.80
2019-03-06T14:44:30.340Z,48.80
2019-03-06T14:47:00.337Z,49.80
2019-03-06T14:49:30.486Z,49.30
2019-03-06T14:52:07.324Z,48.60
2019-03-06T14:54:32.229Z,47.90
2019-03-06T14:57:02.219Z,48.30
2019-03-06T14:59:32.274Z,49.40
2019-03-06T15:02:02.432Z,48.90
2019-03-06T15:04:32.433Z,50.10
2019-03-06T15:07:02.407Z,50.90
2019-03-06T15:09:32.468Z,52.50
2019-03-06T15:12:02.589Z,51.20
2019-03-06T15:14:36.003Z,50.70
2019-03-06T15:17:04.221Z,49.40
2019-03-06T15:19:34.276Z,50.60
2019-03-06T15:22:04.246Z,50.30
2019-03-06T15:24:40.888Z,50.20
2019-03-06T15:27:05.906Z,50.80
2019-03-06T15:29:36.036Z,51.40
2019-03-06T15:32:06.048Z,51.80
2019-03-06T15:34:36.027Z,52.80
2019-03-06T15:37:05.959Z,53.10
2019-03-06T15:39:44.522Z,52.70
2019-03-06T15:42:07.568Z,52.20
2019-03-06T15:44:37.606Z,52.00
2019-03-06T15:47:07.515Z,52.20
2019-03-06T15:49:37.442Z,54.70
2019-03-06T15:52:07.910Z,55.00
2019-03-06T15:54:37.952Z,55.90
2019-03-06T15:57:09.982Z,55.70
2019-03-06T15:59:39.569Z,53.80
2019-03-06T16:02:09.600Z,55.00
2019-03-06T16:04:39.635Z,55.40
2019-03-06T16:07:09.540Z,55.60
2019-03-06T16:09:39.817Z,55.80
2019-03-06T16:12:09.658Z,56.10
2019-03-06T16:14:39.749Z,56.00
2019-03-06T16:17:09.729Z,55.50
2019-03-06T16:19:39.725Z,54.90
2019-03-06T16:22:09.572Z,56.20
2019-03-06T16:24:39.697Z,56.50
2019-03-06T16:27:09.683Z,56.50
2019-03-06T16:29:39.663Z,56.40
2019-03-06T16:32:09.652Z,56.80
2019-03-06T16:34:39.557Z,58.50
2019-03-06T16:37:09.655Z,58.50
2019-03-06T16:39:39.776Z,60.10
2019-03-06T16:42:09.751Z,61.50
2019-03-06T16:44:39.664Z,62.70
2019-03-06T16:47:09.564Z,61.80
2019-03-06T16:49:39.994Z,62.00
2019-03-06T16:52:09.995Z,63.40
2019-03-06T16:54:40.727Z,64.90
2019-03-06T16:57:10.799Z,66.00
2019-03-06T16:59:40.837Z,66.30
2019-03-06T17:02:10.935Z,66.50
2019-03-06T17:04:43.514Z,67.40
2019-03-06T17:07:13.472Z,68.80
2019-03-06T17:09:43.573Z,69.80
2019-03-06T17:12:13.542Z,69.80
2019-03-06T17:14:43.608Z,70.40
2019-03-06T17:17:13.592Z,70.80
2019-03-06T17:19:44.659Z,71.20
2019-03-06T17:22:14.703Z,71.60
2019-03-06T17:24:44.709Z,71.70
2019-03-06T17:27:14.807Z,72.00
2019-03-06T17:29:45.135Z,71.80
2019-03-06T17:32:15.388Z,72.10
2019-03-06T17:34:45.371Z,72.30
2019-03-06T17:37:15.419Z,72.20
2019-03-06T17:39:45.393Z,72.20
2019-03-06T17:42:17.450Z,72.40
2019-03-06T17:44:47.438Z,72.60
2019-03-06T17:47:17.486Z,72.80
2019-03-06T17:49:47.596Z,73.40
2019-03-06T17:52:17.639Z,72.60
2019-03-06T17:54:47.692Z,73.20
2019-03-06T17:57:17.766Z,74.10
2019-03-06T17:59:47.908Z,74.20
2019-03-06T18:02:17.943Z,73.90
2019-03-06T18:04:48.111Z,73.60
2019-03-06T18:07:18.258Z,72.90
2019-03-06T18:09:53.407Z,72.20
2019-03-06T18:12:24.977Z,72.50
2019-03-06T18:14:55.046Z,72.80
2019-03-06T18:17:25.046Z,73.40
2019-03-06T18:19:56.092Z,73.30
2019-03-06T18:22:29.209Z,73.70
2019-03-06T18:24:59.317Z,73.70
2019-03-06T18:27:31.567Z,73.80
2019-03-06T18:32:52.672Z,72.90
2019-03-06T18:35:22.963Z,72.30
2019-03-06T18:37:53.025Z,73.10
2019-03-06T18:40:26.614Z,73.40
2019-03-06T18:42:56.680Z,74.10
2019-03-06T18:45:26.883Z,73.30
2019-03-06T18:47:57.074Z,74.00
2019-03-06T18:50:27.248Z,73.20
2019-03-06T18:52:59.246Z,73.10
2019-03-06T18:55:29.454Z,73.00
2019-03-06T18:57:59.738Z,72.30
2019-03-06T19:00:31.086Z,72.80
2019-03-06T19:03:05.535Z,72.80
2019-03-06T19:05:36.971Z,73.10
2019-03-06T19:08:08.503Z,72.30
2019-03-06T19:10:38.888Z,72.10
2019-03-06T19:13:17.252Z,72.70
2019-03-06T19:15:51.592Z,71.70
2019-03-06T19:18:21.916Z,71.50
2019-03-06T19:20:52.131Z,72.70
2019-03-06T19:23:22.304Z,72.70
2019-03-06T19:26:02.014Z,73.20
2019-03-06T19:28:32.173Z,73.20
2019-03-06T19:31:02.267Z,72.80
2019-03-06T19:33:32.480Z,72.20
2019-03-06T19:36:02.482Z,71.90
2019-03-06T19:38:32.566Z,72.00
2019-03-06T19:41:02.636Z,72.30
2019-03-06T19:43:33.220Z,73.20
2019-03-06T19:46:03.283Z,73.80
2019-03-06T19:48:33.466Z,73.70
2019-03-06T19:51:03.575Z,74.00
2019-03-06T19:53:33.447Z,73.60
2019-03-06T19:56:03.640Z,73.40
2019-03-06T19:58:33.779Z,73.70
2019-03-06T20:01:03.615Z,74.60
2019-03-06T20:03:33.755Z,74.60
2019-03-06T20:06:03.862Z,75.10
2019-03-06T20:08:33.998Z,76.10
2019-03-06T20:11:04.049Z,76.50
2019-03-06T20:13:34.105Z,76.80
2019-03-06T20:16:04.566Z,76.90
2019-03-06T20:18:34.761Z,77.60
2019-03-06T20:21:04.865Z,77.00
2019-03-06T20:23:35.045Z,77.80
2019-03-06T20:26:13.619Z,77.40
2019-03-06T20:28:36.757Z,76.90
2019-03-06T20:31:06.867Z,76.30
2019-03-06T20:33:36.853Z,76.70
2019-03-06T20:36:08.051Z,76.80
2019-03-06T20:38:38.160Z,76.70
2019-03-06T20:41:08.430Z,77.10
2019-03-06T20:43:38.599Z,76.90
2019-03-06T20:46:08.794Z,77.10
2019-03-06T20:48:39.063Z,77.10
2019-03-06T20:51:09.525Z,77.10
2019-03-06T20:53:39.787Z,76.70
2019-03-06T20:56:09.929Z,76.00
2019-03-06T20:58:40.701Z,76.30
2019-03-06T21:01:10.840Z,76.30
2019-03-06T21:03:41.112Z,77.40
2019-03-06T21:06:12.339Z,77.10
2019-03-06T21:08:42.498Z,77.10
2019-03-06T21:11:12.610Z,77.10
2019-03-06T21:13:42.694Z,77.10
2019-03-06T21:16:12.821Z,77.50
2019-03-06T21:18:43.116Z,76.60
2019-03-06T21:21:15.027Z,77.10
2019-03-06T21:23:45.044Z,76.40
2019-03-06T21:26:15.160Z,76.80
2019-03-06T21:28:45.269Z,76.60
2019-03-06T21:31:15.462Z,76.70
2019-03-06T21:33:45.590Z,76.70
2019-03-06T21:36:15.713Z,77.30
2019-03-06T21:38:45.841Z,77.90
2019-03-06T21:41:15.980Z,77.70
2019-03-06T21:43:46.010Z,78.30
2019-03-06T21:46:16.291Z,78.10
2019-03-06T21:48:46.203Z,78.00
2019-03-06T21:51:16.348Z,77.70
2019-03-06T21:53:48.639Z,78.10
2019-03-06T21:56:18.753Z,78.00
2019-03-06T21:58:48.886Z,78.00
2019-03-06T22:01:18.964Z,78.90
2019-03-06T22:03:49.046Z,78.50
2019-03-06T22:06:19.005Z,78.50
2019-03-06T22:08:48.985Z,78.50
2019-03-06T22:11:19.055Z,78.50
2019-03-06T22:13:49.012Z,78.60
2019-03-06T22:16:19.071Z,78.70
2019-03-06T22:18:49.114Z,78.10
2019-03-06T22:21:19.102Z,77.30
2019-03-06T22:23:48.993Z,77.00
2019-03-06T22:26:19.084Z,76.10
2019-03-06T22:28:49.076Z,75.90
2019-03-06T22:31:19.094Z,75.70
2019-03-06T22:33:48.955Z,75.40
2019-03-06T22:36:18.949Z,75.30
2019-03-06T22:38:48.859Z,75.40
2019-03-06T22:41:18.863Z,75.40
2019-03-06T22:43:48.905Z,75.30
2019-03-06T22:46:18.920Z,75.90
2019-03-06T22:48:48.981Z,76.30
2019-03-06T22:51:19.029Z,76.30
2019-03-06T22:53:49.357Z,75.80
2019-03-06T22:56:19.430Z,75.60
2019-03-06T22:58:49.347Z,75.00
2019-03-06T23:01:22.589Z,74.80
2019-03-06T23:03:54.778Z,74.80
2019-03-06T23:06:24.790Z,74.20
2019-03-06T23:08:54.831Z,73.80
2019-03-06T23:11:24.808Z,73.80
2019-03-06T23:13:54.780Z,74.20
2019-03-06T23:16:24.840Z,74.40
2019-03-06T23:18:54.821Z,74.10
2019-03-06T23:21:24.977Z,74.10
2019-03-06T23:23:55.005Z,73.50
2019-03-06T23:26:25.019Z,73.80
2019-03-06T23:28:55.066Z,73.60
2019-03-06T23:31:25.037Z,73.80
2019-03-06T23:33:55.064Z,73.40
2019-03-06T23:36:25.119Z,73.40
2019-03-06T23:38:55.161Z,72.50
2019-03-06T23:41:25.381Z,72.40
2019-03-06T23:43:55.388Z,72.10
2019-03-06T23:46:25.402Z,71.90
2019-03-06T23:48:55.541Z,71.60
2019-03-06T23:51:27.357Z,71.20
2019-03-06T23:53:57.212Z,71.50
2019-03-06T23:56:27.269Z,71.50
2019-03-06T23:58:57.205Z,72.00
